sensor_id;sensor_type;location;lat;lon;timestamp;pressure;altitude;pressure_sealevel;temperature;humidity
56721;BME280;53183;47.412;18.884;2023-03-21T00:00:32;99225.06;;;10.68;80.02
56721;BME280;53183;47.412;18.884;2023-03-21T00:03:00;99218.94;;;10.68;80.10
56721;BME280;53183;47.412;18.884;2023-03-21T00:05:27;99218.66;;;10.72;79.80
56721;BME280;53183;47.412;18.884;2023-03-21T00:07:54;99215.75;;;10.77;79.59
56721;BME280;53183;47.412;18.884;2023-03-21T00:10:22;99215.75;;;10.77;79.57
56721;BME280;53183;47.412;18.884;2023-03-21T00:13:05;99218.22;;;10.80;79.46
56721;BME280;53183;47.412;18.884;2023-03-21T00:15:33;99204.84;;;10.83;79.05
56721;BME280;53183;47.412;18.884;2023-03-21T00:18:17;99215.00;;;10.75;79.35
56721;BME280;53183;47.412;18.884;2023-03-21T00:21:01;99203.56;;;10.74;79.21
56721;BME280;53183;47.412;18.884;2023-03-21T00:23:48;99207.06;;;10.75;79.18
56721;BME280;53183;47.412;18.884;2023-03-21T00:26:16;99204.78;;;10.69;79.31
56721;BME280;53183;47.412;18.884;2023-03-21T00:28:43;99200.78;;;10.62;79.64
56721;BME280;53183;47.412;18.884;2023-03-21T00:31:11;99205.50;;;10.56;79.82
56721;BME280;53183;47.412;18.884;2023-03-21T00:33:39;99201.50;;;10.49;80.17
56721;BME280;53183;47.412;18.884;2023-03-21T00:36:07;99194.97;;;10.41;80.48
56721;BME280;53183;47.412;18.884;2023-03-21T00:38:36;99195.34;;;10.35;80.88
56721;BME280;53183;47.412;18.884;2023-03-21T00:41:07;99189.78;;;10.23;81.39
56721;BME280;53183;47.412;18.884;2023-03-21T00:43:50;99190.12;;;10.17;81.84
56721;BME280;53183;47.412;18.884;2023-03-21T00:46:18;99189.25;;;10.17;81.99
56721;BME280;53183;47.412;18.884;2023-03-21T00:48:46;99175.66;;;10.08;82.30
56721;BME280;53183;47.412;18.884;2023-03-21T00:51:19;99179.56;;;10.17;82.06
56721;BME280;53183;47.412;18.884;2023-03-21T00:53:54;99181.94;;;10.22;81.90
56721;BME280;53183;47.412;18.884;2023-03-21T00:56:25;99176.59;;;10.23;81.81
56721;BME280;53183;47.412;18.884;2023-03-21T00:58:53;99187.22;;;10.06;82.66
56721;BME280;53183;47.412;18.884;2023-03-21T01:01:20;99175.75;;;10.07;82.69
56721;BME280;53183;47.412;18.884;2023-03-21T01:03:47;99182.28;;;10.16;82.24
56721;BME280;53183;47.412;18.884;2023-03-21T01:06:18;99184.25;;;10.12;82.42
56721;BME280;53183;47.412;18.884;2023-03-21T01:08:47;99179.31;;;10.06;82.57
56721;BME280;53183;47.412;18.884;2023-03-21T01:11:22;99176.34;;;10.12;82.23
56721;BME280;53183;47.412;18.884;2023-03-21T01:13:50;99174.81;;;10.08;82.44
56721;BME280;53183;47.412;18.884;2023-03-21T01:16:31;99178.28;;;10.08;82.39
56721;BME280;53183;47.412;18.884;2023-03-21T01:18:58;99183.91;;;10.02;82.49
56721;BME280;53183;47.412;18.884;2023-03-21T01:21:25;99176.09;;;10.01;82.66
56721;BME280;53183;47.412;18.884;2023-03-21T01:23:53;99179.25;;;9.92;82.96
56721;BME280;53183;47.412;18.884;2023-03-21T01:26:20;99177.91;;;9.84;83.48
56721;BME280;53183;47.412;18.884;2023-03-21T01:28:47;99176.44;;;9.79;84.14
56721;BME280;53183;47.412;18.884;2023-03-21T01:31:16;99175.09;;;9.72;84.34
56721;BME280;53183;47.412;18.884;2023-03-21T01:33:43;99178.25;;;9.78;84.29
56721;BME280;53183;47.412;18.884;2023-03-21T01:36:19;99175.75;;;9.75;84.54
56721;BME280;53183;47.412;18.884;2023-03-21T01:38:51;99180.78;;;9.64;85.18
56721;BME280;53183;47.412;18.884;2023-03-21T01:41:35;99170.25;;;9.64;85.36
56721;BME280;53183;47.412;18.884;2023-03-21T01:44:16;99180.44;;;9.54;85.91
56721;BME280;53183;47.412;18.884;2023-03-21T01:46:50;99178.03;;;9.50;86.10
56721;BME280;53183;47.412;18.884;2023-03-21T01:49:39;99185.34;;;9.60;85.65
56721;BME280;53183;47.412;18.884;2023-03-21T01:52:15;99178.37;;;9.59;85.57
56721;BME280;53183;47.412;18.884;2023-03-21T01:55:05;99190.41;;;9.65;85.13
56721;BME280;53183;47.412;18.884;2023-03-21T01:57:46;99188.28;;;9.72;84.70
56721;BME280;53183;47.412;18.884;2023-03-21T02:00:32;99180.19;;;9.75;84.31
56721;BME280;53183;47.412;18.884;2023-03-21T02:03:04;99184.13;;;9.68;84.51
56721;BME280;53183;47.412;18.884;2023-03-21T02:05:58;99183.00;;;9.56;85.08
56721;BME280;53183;47.412;18.884;2023-03-21T02:08:31;99177.53;;;9.59;84.94
56721;BME280;53183;47.412;18.884;2023-03-21T02:11:07;99186.59;;;9.71;84.42
56721;BME280;53183;47.412;18.884;2023-03-21T02:13:37;99181.66;;;9.65;84.54
56721;BME280;53183;47.412;18.884;2023-03-21T02:16:32;99184.28;;;9.65;84.65
56721;BME280;53183;47.412;18.884;2023-03-21T02:26:13;99186.06;;;9.80;84.00
56721;BME280;53183;47.412;18.884;2023-03-21T02:28:46;99186.22;;;9.77;84.12
56721;BME280;53183;47.412;18.884;2023-03-21T02:31:37;99187.00;;;9.79;84.28
56721;BME280;53183;47.412;18.884;2023-03-21T02:36:58;99185.53;;;9.89;83.62
56721;BME280;53183;47.412;18.884;2023-03-21T02:45:16;99179.34;;;9.74;84.26
56721;BME280;53183;47.412;18.884;2023-03-21T02:47:55;99190.91;;;9.72;84.31
56721;BME280;53183;47.412;18.884;2023-03-21T02:50:27;99191.34;;;9.80;84.19
56721;BME280;53183;47.412;18.884;2023-03-21T02:52:58;99187.16;;;9.92;83.45
56721;BME280;53183;47.412;18.884;2023-03-21T02:55:30;99192.63;;;9.89;83.49
56721;BME280;53183;47.412;18.884;2023-03-21T02:57:59;99191.09;;;9.84;83.69
56721;BME280;53183;47.412;18.884;2023-03-21T03:00:40;99194.59;;;9.85;83.65
56721;BME280;53183;47.412;18.884;2023-03-21T03:03:11;99183.25;;;9.83;83.77
56721;BME280;53183;47.412;18.884;2023-03-21T03:05:59;99189.81;;;9.76;84.03
56721;BME280;53183;47.412;18.884;2023-03-21T03:11:30;99185.72;;;9.54;85.04
56721;BME280;53183;47.412;18.884;2023-03-21T03:17:21;99187.56;;;9.52;85.37
56721;BME280;53183;47.412;18.884;2023-03-21T03:23:15;99192.53;;;9.58;84.94
56721;BME280;53183;47.412;18.884;2023-03-21T03:25:51;99191.72;;;9.40;85.64
56721;BME280;53183;47.412;18.884;2023-03-21T03:28:25;99187.38;;;9.39;85.87
56721;BME280;53183;47.412;18.884;2023-03-21T03:30:54;99182.75;;;9.27;86.42
56721;BME280;53183;47.412;18.884;2023-03-21T03:33:38;99191.25;;;9.16;87.06
56721;BME280;53183;47.412;18.884;2023-03-21T03:36:09;99184.34;;;9.14;87.32
56721;BME280;53183;47.412;18.884;2023-03-21T03:38:51;99179.69;;;9.19;87.14
56721;BME280;53183;47.412;18.884;2023-03-21T03:41:26;99185.41;;;9.27;86.87
56721;BME280;53183;47.412;18.884;2023-03-21T03:43:58;99182.38;;;9.35;86.40
56721;BME280;53183;47.412;18.884;2023-03-21T03:46:33;99183.44;;;9.31;86.63
56721;BME280;53183;47.412;18.884;2023-03-21T03:49:23;99181.75;;;9.30;86.79
56721;BME280;53183;47.412;18.884;2023-03-21T03:52:25;99176.66;;;9.43;86.30
56721;BME280;53183;47.412;18.884;2023-03-21T03:54:55;99176.50;;;9.46;85.96
56721;BME280;53183;47.412;18.884;2023-03-21T03:57:24;99177.34;;;9.46;86.06
56721;BME280;53183;47.412;18.884;2023-03-21T03:59:53;99172.25;;;9.43;86.12
56721;BME280;53183;47.412;18.884;2023-03-21T04:02:20;99174.62;;;9.32;86.71
56721;BME280;53183;47.412;18.884;2023-03-21T04:04:48;99178.78;;;9.36;86.72
56721;BME280;53183;47.412;18.884;2023-03-21T04:07:20;99181.09;;;9.42;86.68
56721;BME280;53183;47.412;18.884;2023-03-21T04:09:48;99178.84;;;9.34;87.12
56721;BME280;53183;47.412;18.884;2023-03-21T04:12:16;99177.16;;;9.33;87.33
56721;BME280;53183;47.412;18.884;2023-03-21T04:14:49;99184.06;;;9.36;87.45
56721;BME280;53183;47.412;18.884;2023-03-21T04:17:19;99178.00;;;9.34;87.78
56721;BME280;53183;47.412;18.884;2023-03-21T04:19:47;99178.63;;;9.39;87.66
56721;BME280;53183;47.412;18.884;2023-03-21T04:22:24;99180.94;;;9.45;87.25
56721;BME280;53183;47.412;18.884;2023-03-21T04:24:51;99177.09;;;9.35;87.57
56721;BME280;53183;47.412;18.884;2023-03-21T04:27:19;99181.16;;;9.25;88.18
56721;BME280;53183;47.412;18.884;2023-03-21T04:29:47;99183.34;;;9.16;88.80
56721;BME280;53183;47.412;18.884;2023-03-21T04:32:16;99184.50;;;9.11;89.14
56721;BME280;53183;47.412;18.884;2023-03-21T04:34:46;99184.75;;;9.06;89.71
56721;BME280;53183;47.412;18.884;2023-03-21T04:37:17;99180.44;;;9.05;89.69
56721;BME280;53183;47.412;18.884;2023-03-21T04:39:45;99185.81;;;9.20;89.21
56721;BME280;53183;47.412;18.884;2023-03-21T04:42:14;99178.59;;;9.23;88.89
56721;BME280;53183;47.412;18.884;2023-03-21T04:44:45;99183.59;;;9.28;88.76
56721;BME280;53183;47.412;18.884;2023-03-21T04:47:13;99183.09;;;9.21;88.87
56721;BME280;53183;47.412;18.884;2023-03-21T04:49:42;99181.91;;;9.27;88.80
56721;BME280;53183;47.412;18.884;2023-03-21T04:52:10;99185.66;;;9.23;88.91
56721;BME280;53183;47.412;18.884;2023-03-21T04:54:37;99188.19;;;9.24;88.87
56721;BME280;53183;47.412;18.884;2023-03-21T04:57:04;99183.19;;;9.20;88.99
56721;BME280;53183;47.412;18.884;2023-03-21T04:59:32;99179.38;;;9.25;88.84
56721;BME280;53183;47.412;18.884;2023-03-21T05:01:59;99176.81;;;9.24;88.83
56721;BME280;53183;47.412;18.884;2023-03-21T05:04:29;99184.81;;;9.22;88.94
56721;BME280;53183;47.412;18.884;2023-03-21T05:06:57;99193.56;;;9.23;88.82
56721;BME280;53183;47.412;18.884;2023-03-21T05:09:25;99192.94;;;9.18;89.33
56721;BME280;53183;47.412;18.884;2023-03-21T05:11:52;99190.66;;;9.11;89.57
56721;BME280;53183;47.412;18.884;2023-03-21T05:14:22;99197.31;;;9.19;89.33
56721;BME280;53183;47.412;18.884;2023-03-21T05:16:51;99200.63;;;9.22;89.35
56721;BME280;53183;47.412;18.884;2023-03-21T05:19:28;99202.06;;;9.28;88.96
56721;BME280;53183;47.412;18.884;2023-03-21T05:22:06;99192.75;;;9.38;88.36
56721;BME280;53183;47.412;18.884;2023-03-21T05:24:35;99202.41;;;9.55;87.80
56721;BME280;53183;47.412;18.884;2023-03-21T05:27:05;99202.00;;;9.78;86.74
56721;BME280;53183;47.412;18.884;2023-03-21T05:29:36;99202.66;;;10.14;84.73
56721;BME280;53183;47.412;18.884;2023-03-21T05:32:04;99190.12;;;10.17;84.39
56721;BME280;53183;47.412;18.884;2023-03-21T05:34:31;99190.12;;;10.33;83.32
56721;BME280;53183;47.412;18.884;2023-03-21T05:36:58;99199.75;;;10.50;82.61
56721;BME280;53183;47.412;18.884;2023-03-21T05:39:26;99205.34;;;10.60;82.00
56721;BME280;53183;47.412;18.884;2023-03-21T05:41:55;99203.53;;;10.60;81.91
56721;BME280;53183;47.412;18.884;2023-03-21T05:44:22;99200.22;;;10.87;80.98
56721;BME280;53183;47.412;18.884;2023-03-21T05:46:50;99206.41;;;11.16;79.14
56721;BME280;53183;47.412;18.884;2023-03-21T05:49:18;99213.78;;;11.39;77.85
56721;BME280;53183;47.412;18.884;2023-03-21T05:51:51;99216.31;;;11.55;76.90
56721;BME280;53183;47.412;18.884;2023-03-21T05:54:19;99218.66;;;11.74;75.83
56721;BME280;53183;47.412;18.884;2023-03-21T05:56:46;99222.25;;;11.87;75.20
56721;BME280;53183;47.412;18.884;2023-03-21T05:59:14;99217.41;;;11.94;75.12
56721;BME280;53183;47.412;18.884;2023-03-21T06:01:43;99215.84;;;11.91;74.63
56721;BME280;53183;47.412;18.884;2023-03-21T06:04:11;99218.84;;;11.71;75.37
56721;BME280;53183;47.412;18.884;2023-03-21T06:06:38;99220.75;;;11.69;75.61
56721;BME280;53183;47.412;18.884;2023-03-21T06:09:06;99225.09;;;11.70;75.88
56721;BME280;53183;47.412;18.884;2023-03-21T06:11:36;99232.34;;;11.81;75.13
56721;BME280;53183;47.412;18.884;2023-03-21T06:14:07;99222.16;;;12.30;73.09
56721;BME280;53183;47.412;18.884;2023-03-21T06:16:35;99227.12;;;13.14;69.46
56721;BME280;53183;47.412;18.884;2023-03-21T06:19:03;99221.69;;;13.93;66.48
56721;BME280;53183;47.412;18.884;2023-03-21T06:21:31;99226.03;;;14.18;64.90
56721;BME280;53183;47.412;18.884;2023-03-21T06:23:59;99228.44;;;14.10;64.81
56721;BME280;53183;47.412;18.884;2023-03-21T06:26:26;99232.63;;;13.75;65.59
56721;BME280;53183;47.412;18.884;2023-03-21T06:28:53;99228.66;;;13.44;67.08
56721;BME280;53183;47.412;18.884;2023-03-21T06:31:21;99225.97;;;13.70;66.68
56721;BME280;53183;47.412;18.884;2023-03-21T06:33:50;99228.88;;;14.03;64.59
56721;BME280;53183;47.412;18.884;2023-03-21T06:36:18;99229.00;;;14.26;63.49
56721;BME280;53183;47.412;18.884;2023-03-21T06:38:48;99226.44;;;14.24;63.73
56721;BME280;53183;47.412;18.884;2023-03-21T06:41:15;99231.47;;;13.92;64.54
56721;BME280;53183;47.412;18.884;2023-03-21T06:43:44;99228.97;;;13.40;66.44
56721;BME280;53183;47.412;18.884;2023-03-21T06:46:11;99230.09;;;13.74;65.62
56721;BME280;53183;47.412;18.884;2023-03-21T06:48:39;99224.25;;;14.42;63.33
56721;BME280;53183;47.412;18.884;2023-03-21T06:51:12;99226.09;;;15.01;61.24
56721;BME280;53183;47.412;18.884;2023-03-21T06:53:41;99221.94;;;15.88;58.50
56721;BME280;53183;47.412;18.884;2023-03-21T06:56:10;99228.56;;;16.16;56.97
56721;BME280;53183;47.412;18.884;2023-03-21T06:58:39;99228.56;;;17.34;53.85
56721;BME280;53183;47.412;18.884;2023-03-21T07:01:11;99215.87;;;16.84;54.70
56721;BME280;53183;47.412;18.884;2023-03-21T07:03:42;99227.41;;;17.06;53.94
56721;BME280;53183;47.412;18.884;2023-03-21T07:06:10;99217.38;;;17.19;53.66
56721;BME280;53183;47.412;18.884;2023-03-21T07:08:39;99224.09;;;17.34;52.65
56721;BME280;53183;47.412;18.884;2023-03-21T07:11:08;99226.28;;;17.29;52.96
56721;BME280;53183;47.412;18.884;2023-03-21T07:13:36;99222.84;;;17.39;52.14
56721;BME280;53183;47.412;18.884;2023-03-21T07:16:04;99230.16;;;16.95;52.68
56721;BME280;53183;47.412;18.884;2023-03-21T07:18:31;99235.03;;;17.31;52.29
56721;BME280;53183;47.412;18.884;2023-03-21T07:20:59;99237.97;;;17.59;51.54
56721;BME280;53183;47.412;18.884;2023-03-21T07:23:26;99230.53;;;17.63;51.25
56721;BME280;53183;47.412;18.884;2023-03-21T07:25:54;99230.22;;;17.25;52.86
56721;BME280;53183;47.412;18.884;2023-03-21T07:28:22;99224.59;;;17.28;52.26
56721;BME280;53183;47.412;18.884;2023-03-21T07:30:55;99237.84;;;17.81;51.30
56721;BME280;53183;47.412;18.884;2023-03-21T07:33:23;99236.53;;;18.07;50.20
56721;BME280;53183;47.412;18.884;2023-03-21T07:35:52;99239.69;;;18.50;49.31
56721;BME280;53183;47.412;18.884;2023-03-21T07:38:20;99238.69;;;18.42;49.31
56721;BME280;53183;47.412;18.884;2023-03-21T07:40:48;99245.34;;;18.67;48.35
56721;BME280;53183;47.412;18.884;2023-03-21T07:43:16;99232.81;;;18.67;48.52
56721;BME280;53183;47.412;18.884;2023-03-21T07:45:45;99225.59;;;18.39;49.24
56721;BME280;53183;47.412;18.884;2023-03-21T07:48:13;99230.38;;;18.45;48.64
56721;BME280;53183;47.412;18.884;2023-03-21T07:50:40;99226.47;;;18.97;47.82
56721;BME280;53183;47.412;18.884;2023-03-21T07:53:07;99233.22;;;18.43;48.41
56721;BME280;53183;47.412;18.884;2023-03-21T07:55:35;99224.37;;;18.82;48.36
56721;BME280;53183;47.412;18.884;2023-03-21T07:58:03;99220.72;;;18.83;48.19
56721;BME280;53183;47.412;18.884;2023-03-21T08:00:32;99234.44;;;18.20;49.06
56721;BME280;53183;47.412;18.884;2023-03-21T08:03:00;99231.09;;;18.37;48.42
56721;BME280;53183;47.412;18.884;2023-03-21T08:05:35;99230.44;;;18.74;48.28
56721;BME280;53183;47.412;18.884;2023-03-21T08:08:04;99222.13;;;18.77;47.68
56721;BME280;53183;47.412;18.884;2023-03-21T08:10:32;99219.97;;;18.42;48.68
56721;BME280;53183;47.412;18.884;2023-03-21T08:12:59;99225.56;;;18.19;49.57
56721;BME280;53183;47.412;18.884;2023-03-21T08:15:26;99232.38;;;18.62;48.91
56721;BME280;53183;47.412;18.884;2023-03-21T08:17:54;99235.06;;;18.43;48.64
56721;BME280;53183;47.412;18.884;2023-03-21T08:20:21;99239.66;;;18.31;49.92
56721;BME280;53183;47.412;18.884;2023-03-21T08:22:50;99230.56;;;17.93;49.27
56721;BME280;53183;47.412;18.884;2023-03-21T08:25:18;99238.44;;;17.64;49.43
56721;BME280;53183;47.412;18.884;2023-03-21T08:27:48;99239.91;;;17.47;50.42
56721;BME280;53183;47.412;18.884;2023-03-21T08:30:18;99230.38;;;17.54;50.03
56721;BME280;53183;47.412;18.884;2023-03-21T08:32:46;99230.09;;;17.78;50.16
56721;BME280;53183;47.412;18.884;2023-03-21T08:35:16;99234.91;;;17.85;50.50
56721;BME280;53183;47.412;18.884;2023-03-21T08:37:44;99237.00;;;18.31;48.57
56721;BME280;53183;47.412;18.884;2023-03-21T08:40:14;99242.81;;;18.46;47.80
56721;BME280;53183;47.412;18.884;2023-03-21T08:42:43;99233.56;;;18.19;48.15
56721;BME280;53183;47.412;18.884;2023-03-21T08:45:11;99240.38;;;18.23;47.81
56721;BME280;53183;47.412;18.884;2023-03-21T08:47:39;99236.91;;;18.02;48.77
56721;BME280;53183;47.412;18.884;2023-03-21T08:50:08;99244.69;;;18.15;49.20
56721;BME280;53183;47.412;18.884;2023-03-21T08:52:36;99237.25;;;18.28;48.67
56721;BME280;53183;47.412;18.884;2023-03-21T08:55:03;99239.19;;;17.76;49.15
56721;BME280;53183;47.412;18.884;2023-03-21T08:57:31;99235.66;;;17.24;50.00
56721;BME280;53183;47.412;18.884;2023-03-21T08:59:58;99241.53;;;16.76;51.44
56721;BME280;53183;47.412;18.884;2023-03-21T09:02:25;99246.59;;;16.35;52.85
56721;BME280;53183;47.412;18.884;2023-03-21T09:04:53;99241.50;;;16.64;52.54
56721;BME280;53183;47.412;18.884;2023-03-21T09:07:21;99241.59;;;17.27;51.38
56721;BME280;53183;47.412;18.884;2023-03-21T09:09:52;99242.84;;;17.44;50.69
56721;BME280;53183;47.412;18.884;2023-03-21T09:12:40;99240.53;;;17.40;51.16
56721;BME280;53183;47.412;18.884;2023-03-21T09:15:09;99242.25;;;17.20;52.30
56721;BME280;53183;47.412;18.884;2023-03-21T09:17:39;99248.94;;;17.77;49.95
56721;BME280;53183;47.412;18.884;2023-03-21T09:20:11;99242.03;;;17.53;50.49
56721;BME280;53183;47.412;18.884;2023-03-21T09:22:47;99252.13;;;17.50;51.16
56721;BME280;53183;47.412;18.884;2023-03-21T09:25:16;99241.75;;;17.05;51.36
56721;BME280;53183;47.412;18.884;2023-03-21T09:27:45;99248.25;;;17.33;51.23
56721;BME280;53183;47.412;18.884;2023-03-21T09:30:16;99247.09;;;17.56;50.54
56721;BME280;53183;47.412;18.884;2023-03-21T09:32:45;99241.84;;;17.76;50.79
56721;BME280;53183;47.412;18.884;2023-03-21T09:35:18;99242.66;;;17.88;49.61
56721;BME280;53183;47.412;18.884;2023-03-21T09:37:47;99251.69;;;18.06;48.22
56721;BME280;53183;47.412;18.884;2023-03-21T09:40:18;99239.50;;;18.13;48.74
56721;BME280;53183;47.412;18.884;2023-03-21T09:43:37;99237.06;;;18.00;48.90
56721;BME280;53183;47.412;18.884;2023-03-21T09:47:01;99244.84;;;18.13;49.46
56721;BME280;53183;47.412;18.884;2023-03-21T09:49:20;99235.28;;;17.80;49.07
56721;BME280;53183;47.412;18.884;2023-03-21T09:51:53;99237.00;;;17.60;49.08
56721;BME280;53183;47.412;18.884;2023-03-21T09:54:26;99233.09;;;17.43;50.48
56721;BME280;53183;47.412;18.884;2023-03-21T09:56:56;99231.91;;;17.47;50.96
56721;BME280;53183;47.412;18.884;2023-03-21T09:59:31;99226.56;;;17.26;50.59
56721;BME280;53183;47.412;18.884;2023-03-21T10:02:01;99231.00;;;16.95;50.39
56721;BME280;53183;47.412;18.884;2023-03-21T10:04:30;99232.03;;;17.04;50.29
56721;BME280;53183;47.412;18.884;2023-03-21T10:07:00;99226.75;;;17.14;49.04
56721;BME280;53183;47.412;18.884;2023-03-21T10:09:29;99218.03;;;17.11;49.69
56721;BME280;53183;47.412;18.884;2023-03-21T10:12:00;99217.50;;;17.39;48.72
56721;BME280;53183;47.412;18.884;2023-03-21T10:14:37;99212.25;;;17.37;50.49
56721;BME280;53183;47.412;18.884;2023-03-21T10:17:11;99212.88;;;17.20;49.59
56721;BME280;53183;47.412;18.884;2023-03-21T10:19:41;99208.97;;;17.24;48.89
56721;BME280;53183;47.412;18.884;2023-03-21T10:22:12;99217.09;;;17.43;47.40
56721;BME280;53183;47.412;18.884;2023-03-21T10:24:39;99211.97;;;17.61;46.01
56721;BME280;53183;47.412;18.884;2023-03-21T10:27:08;99209.13;;;17.53;46.04
56721;BME280;53183;47.412;18.884;2023-03-21T10:29:42;99205.75;;;17.51;46.26
56721;BME280;53183;47.412;18.884;2023-03-21T10:32:16;99206.44;;;17.53;47.36
56721;BME280;53183;47.412;18.884;2023-03-21T10:34:48;99208.63;;;17.69;45.17
56721;BME280;53183;47.412;18.884;2023-03-21T10:37:17;99203.81;;;17.63;46.93
56721;BME280;53183;47.412;18.884;2023-03-21T10:39:48;99210.78;;;17.75;43.68
56721;BME280;53183;47.412;18.884;2023-03-21T10:42:22;99203.59;;;17.75;44.20
56721;BME280;53183;47.412;18.884;2023-03-21T10:44:52;99202.41;;;17.89;45.57
56721;BME280;53183;47.412;18.884;2023-03-21T10:49:49;99195.97;;;18.01;46.55
56721;BME280;53183;47.412;18.884;2023-03-21T10:52:34;99201.19;;;18.13;45.88
56721;BME280;53183;47.412;18.884;2023-03-21T10:55:15;99199.66;;;18.10;43.29
56721;BME280;53183;47.412;18.884;2023-03-21T10:57:45;99193.03;;;18.04;41.96
56721;BME280;53183;47.412;18.884;2023-03-21T11:00:20;99204.00;;;18.01;41.54
56721;BME280;53183;47.412;18.884;2023-03-21T11:02:50;99185.56;;;17.68;42.93
56721;BME280;53183;47.412;18.884;2023-03-21T11:05:35;99181.47;;;18.04;42.72
56721;BME280;53183;47.412;18.884;2023-03-21T11:08:09;99176.25;;;18.02;42.19
56721;BME280;53183;47.412;18.884;2023-03-21T11:13:31;99173.06;;;18.38;42.17
56721;BME280;53183;47.412;18.884;2023-03-21T11:16:22;99163.19;;;18.19;42.93
56721;BME280;53183;47.412;18.884;2023-03-21T11:18:55;99168.41;;;18.20;42.89
56721;BME280;53183;47.412;18.884;2023-03-21T11:21:22;99156.56;;;18.03;42.44
56721;BME280;53183;47.412;18.884;2023-03-21T11:23:56;99159.69;;;18.28;42.22
56721;BME280;53183;47.412;18.884;2023-03-21T11:26:30;99157.31;;;18.35;41.65
56721;BME280;53183;47.412;18.884;2023-03-21T11:28:58;99164.63;;;18.52;40.70
56721;BME280;53183;47.412;18.884;2023-03-21T11:31:39;99166.59;;;18.40;41.68
56721;BME280;53183;47.412;18.884;2023-03-21T11:34:07;99154.63;;;18.44;42.81
56721;BME280;53183;47.412;18.884;2023-03-21T11:36:36;99155.47;;;18.64;42.73
56721;BME280;53183;47.412;18.884;2023-03-21T11:41:39;99147.31;;;18.37;41.69
56721;BME280;53183;47.412;18.884;2023-03-21T11:44:32;99140.22;;;17.87;42.60
56721;BME280;53183;47.412;18.884;2023-03-21T11:47:00;99145.97;;;17.92;40.41
56721;BME280;53183;47.412;18.884;2023-03-21T11:49:28;99136.81;;;17.85;39.96
56721;BME280;53183;47.412;18.884;2023-03-21T11:52:12;99133.91;;;18.08;39.89
56721;BME280;53183;47.412;18.884;2023-03-21T11:55:04;99143.06;;;18.05;40.64
56721;BME280;53183;47.412;18.884;2023-03-21T12:00:34;99132.06;;;17.98;39.64
56721;BME280;53183;47.412;18.884;2023-03-21T12:03:33;99131.38;;;18.25;39.71
56721;BME280;53183;47.412;18.884;2023-03-21T12:06:21;99123.63;;;18.32;38.92
56721;BME280;53183;47.412;18.884;2023-03-21T12:09:09;99118.84;;;18.55;40.86
56721;BME280;53183;47.412;18.884;2023-03-21T12:12:05;99112.09;;;18.80;39.68
56721;BME280;53183;47.412;18.884;2023-03-21T12:17:23;99116.16;;;18.65;39.95
56721;BME280;53183;47.412;18.884;2023-03-21T12:22:33;99118.69;;;17.98;41.88
56721;BME280;53183;47.412;18.884;2023-03-21T12:25:11;99123.34;;;17.56;42.97
56721;BME280;53183;47.412;18.884;2023-03-21T12:27:59;99127.50;;;17.39;42.64
56721;BME280;53183;47.412;18.884;2023-03-21T12:30:46;99119.88;;;17.04;42.84
56721;BME280;53183;47.412;18.884;2023-03-21T12:39:18;99109.16;;;16.94;43.90
56721;BME280;53183;47.412;18.884;2023-03-21T12:44:38;99109.66;;;17.40;43.99
56721;BME280;53183;47.412;18.884;2023-03-21T12:47:20;99105.06;;;17.21;44.97
56721;BME280;53183;47.412;18.884;2023-03-21T12:50:07;99108.84;;;17.08;44.40
56721;BME280;53183;47.412;18.884;2023-03-21T12:52:50;99105.84;;;17.02;43.98
56721;BME280;53183;47.412;18.884;2023-03-21T12:55:24;99091.56;;;17.12;44.07
56721;BME280;53183;47.412;18.884;2023-03-21T12:57:59;99092.63;;;17.00;43.67
56721;BME280;53183;47.412;18.884;2023-03-21T13:03:48;99091.16;;;16.65;44.42
56721;BME280;53183;47.412;18.884;2023-03-21T13:06:05;99088.06;;;16.81;44.46
56721;BME280;53183;47.412;18.884;2023-03-21T13:08:40;99094.44;;;17.00;44.50
56721;BME280;53183;47.412;18.884;2023-03-21T13:11:13;99083.19;;;17.27;44.16
56721;BME280;53183;47.412;18.884;2023-03-21T13:16:32;99067.94;;;17.48;41.19
56721;BME280;53183;47.412;18.884;2023-03-21T13:19:17;99069.63;;;17.49;41.79
56721;BME280;53183;47.412;18.884;2023-03-21T13:22:20;99072.44;;;17.48;41.95
56721;BME280;53183;47.412;18.884;2023-03-21T13:24:57;99068.53;;;17.11;42.86
56721;BME280;53183;47.412;18.884;2023-03-21T13:27:37;99071.47;;;16.87;42.94
56721;BME280;53183;47.412;18.884;2023-03-21T13:30:28;99070.50;;;16.68;42.31
56721;BME280;53183;47.412;18.884;2023-03-21T13:33:10;99073.84;;;16.60;42.41
56721;BME280;53183;47.412;18.884;2023-03-21T13:35:41;99070.75;;;16.64;41.93
56721;BME280;53183;47.412;18.884;2023-03-21T13:38:13;99076.38;;;16.40;41.64
56721;BME280;53183;47.412;18.884;2023-03-21T13:40:48;99076.50;;;16.39;42.38
56721;BME280;53183;47.412;18.884;2023-03-21T13:46:33;99060.75;;;16.57;42.50
56721;BME280;53183;47.412;18.884;2023-03-21T13:51:55;99059.66;;;16.59;43.03
56721;BME280;53183;47.412;18.884;2023-03-21T13:57:04;99062.63;;;16.87;42.22
56721;BME280;53183;47.412;18.884;2023-03-21T13:59:43;99057.97;;;17.10;41.67
56721;BME280;53183;47.412;18.884;2023-03-21T14:04:40;99042.78;;;17.51;39.89
56721;BME280;53183;47.412;18.884;2023-03-21T14:07:30;99040.56;;;17.75;40.85
56721;BME280;53183;47.412;18.884;2023-03-21T14:10:03;99037.47;;;17.70;40.70
56721;BME280;53183;47.412;18.884;2023-03-21T14:12:42;99046.44;;;17.59;40.65
56721;BME280;53183;47.412;18.884;2023-03-21T14:15:22;99046.31;;;17.21;42.02
56721;BME280;53183;47.412;18.884;2023-03-21T14:17:55;99042.25;;;17.17;41.82
56721;BME280;53183;47.412;18.884;2023-03-21T14:20:26;99043.84;;;16.88;41.64
56721;BME280;53183;47.412;18.884;2023-03-21T14:22:54;99031.28;;;16.79;42.02
56721;BME280;53183;47.412;18.884;2023-03-21T14:25:23;99028.03;;;16.76;41.33
56721;BME280;53183;47.412;18.884;2023-03-21T14:27:59;99031.66;;;16.75;40.63